createdAt,value
2023-02-23T00:02:08.664Z,11.40
2023-02-23T00:04:38.318Z,8.55
2023-02-23T00:09:37.952Z,8.55
2023-02-23T00:12:09.890Z,8.80
2023-02-23T00:14:38.877Z,9.32
2023-02-23T00:17:15.277Z,9.55
2023-02-23T00:19:47.167Z,9.10
2023-02-23T00:22:15.470Z,9.18
2023-02-23T00:24:47.457Z,9.40
2023-02-23T00:27:20.415Z,10.55
2023-02-23T00:29:49.924Z,10.43
2023-02-23T00:32:22.571Z,15.43
2023-02-23T00:34:53.607Z,15.07
2023-02-23T00:37:23.695Z,12.38
2023-02-23T00:39:56.965Z,12.35
2023-02-23T00:42:29.722Z,12.95
2023-02-23T00:45:08.620Z,13.73
2023-02-23T00:47:36.568Z,13.38
2023-02-23T00:50:05.606Z,14.70
2023-02-23T00:52:33.328Z,15.18
2023-02-23T00:55:04.067Z,13.68
2023-02-23T00:57:31.644Z,12.48
2023-02-23T00:59:59.461Z,12.90
2023-02-23T01:02:30.875Z,12.32
2023-02-23T01:04:58.853Z,11.05
2023-02-23T01:07:26.927Z,12.13
2023-02-23T01:09:54.845Z,34.20
2023-02-23T01:12:22.538Z,43.05
2023-02-23T01:14:51.242Z,45.70
2023-02-23T01:17:19.199Z,44.70
2023-02-23T01:19:47.276Z,44.08
2023-02-23T01:22:14.899Z,47.58
2023-02-23T01:24:42.980Z,47.30
2023-02-23T01:27:10.783Z,47.15
2023-02-23T01:29:38.708Z,47.60
2023-02-23T01:34:36.189Z,45.90
2023-02-23T01:37:03.977Z,47.05
2023-02-23T01:39:33.714Z,45.88
2023-02-23T01:42:01.260Z,45.40
2023-02-23T01:44:32.016Z,44.70
2023-02-23T01:46:59.611Z,45.40
2023-02-23T01:49:31.013Z,44.17
2023-02-23T01:52:11.088Z,42.20
2023-02-23T01:54:52.386Z,40.70
2023-02-23T01:57:25.105Z,35.33
2023-02-23T01:59:55.110Z,36.50
2023-02-23T02:05:05.061Z,37.10
2023-02-23T02:07:35.400Z,38.80
2023-02-23T02:10:13.121Z,40.15
2023-02-23T02:12:54.891Z,40.55
2023-02-23T02:15:28.298Z,39.50
2023-02-23T02:18:09.684Z,39.53
2023-02-23T02:21:20.721Z,40.55
2023-02-23T02:24:19.545Z,32.85
2023-02-23T02:27:20.289Z,34.25
2023-02-23T02:30:32.312Z,34.03
2023-02-23T02:33:44.041Z,34.25
2023-02-23T02:37:02.270Z,34.42
2023-02-23T02:40:16.490Z,28.65
2023-02-23T02:43:01.191Z,25.05
2023-02-23T02:45:34.665Z,24.65
2023-02-23T02:49:00.561Z,24.17
2023-02-23T02:51:49.278Z,21.15
2023-02-23T02:54:31.737Z,19.15
2023-02-23T02:57:04.595Z,18.23
2023-02-23T03:00:06.059Z,17.27
2023-02-23T03:02:58.770Z,16.52
2023-02-23T03:06:07.221Z,13.55
2023-02-23T03:09:13.042Z,14.43
2023-02-23T03:12:12.262Z,13.45
2023-02-23T03:18:45.417Z,11.27
2023-02-23T03:21:43.030Z,12.55
2023-02-23T03:24:57.317Z,10.15
2023-02-23T03:27:54.117Z,10.23
2023-02-23T03:31:25.094Z,11.02
2023-02-23T03:34:33.607Z,10.07
2023-02-23T03:37:50.686Z,9.60
2023-02-23T03:40:51.180Z,10.18
2023-02-23T03:43:44.130Z,9.88
2023-02-23T03:46:33.453Z,9.15
2023-02-23T03:49:23.397Z,10.00
2023-02-23T03:52:18.421Z,8.32
2023-02-23T03:55:18.140Z,9.30
2023-02-23T03:58:09.674Z,8.70
2023-02-23T04:01:04.378Z,11.32
2023-02-23T04:03:55.887Z,22.17
2023-02-23T04:06:46.212Z,21.17
2023-02-23T04:09:33.143Z,26.15
2023-02-23T04:12:48.505Z,31.15
2023-02-23T04:15:33.871Z,33.55
2023-02-23T04:18:03.707Z,31.52
2023-02-23T04:20:31.878Z,31.50
2023-02-23T04:22:59.483Z,30.92
2023-02-23T04:25:28.553Z,30.92
2023-02-23T04:27:56.172Z,31.10
2023-02-23T04:30:28.696Z,29.27
2023-02-23T04:32:57.049Z,29.15
2023-02-23T04:35:26.892Z,30.70
2023-02-23T04:40:24.312Z,28.60
2023-02-23T04:42:52.812Z,29.73
2023-02-23T04:45:22.189Z,29.40
2023-02-23T04:47:50.932Z,30.63
2023-02-23T04:50:20.081Z,31.33
2023-02-23T04:52:48.801Z,30.77
2023-02-23T04:55:21.586Z,31.17
2023-02-23T04:57:49.851Z,31.33
2023-02-23T05:00:19.179Z,31.10
2023-02-23T05:02:47.298Z,29.52
2023-02-23T05:05:16.080Z,28.10
2023-02-23T05:07:44.106Z,31.05
2023-02-23T05:10:12.423Z,28.17
2023-02-23T05:12:39.979Z,30.23
2023-02-23T05:15:08.391Z,30.55
2023-02-23T05:17:39.003Z,27.92
2023-02-23T05:20:07.997Z,28.40
2023-02-23T05:22:35.641Z,24.93
2023-02-23T05:25:04.338Z,26.77
2023-02-23T05:27:32.774Z,28.00
2023-02-23T05:30:01.528Z,27.95
2023-02-23T05:32:29.761Z,29.55
2023-02-23T05:34:57.819Z,28.70
2023-02-23T05:37:25.360Z,28.05
2023-02-23T05:39:53.188Z,30.40
2023-02-23T05:42:20.619Z,31.30
2023-02-23T05:44:49.112Z,31.30
2023-02-23T05:47:19.579Z,28.85
2023-02-23T05:50:26.746Z,30.48
2023-02-23T05:52:57.462Z,33.13
2023-02-23T05:55:25.838Z,35.50
2023-02-23T05:57:53.497Z,36.97
2023-02-23T06:00:22.176Z,37.70
2023-02-23T06:02:52.502Z,34.17
2023-02-23T06:05:20.610Z,32.92
2023-02-23T06:07:48.184Z,30.83
2023-02-23T06:10:16.543Z,27.65
2023-02-23T06:12:44.094Z,27.75
2023-02-23T06:15:12.093Z,28.33
2023-02-23T06:17:39.713Z,28.55
2023-02-23T06:20:08.159Z,28.90
2023-02-23T06:22:35.894Z,31.38
2023-02-23T06:25:05.229Z,31.25
2023-02-23T06:27:32.852Z,32.05
2023-02-23T06:30:00.692Z,31.52
2023-02-23T06:32:28.446Z,33.58
2023-02-23T06:34:56.610Z,31.63
2023-02-23T06:37:25.501Z,32.55
2023-02-23T06:39:53.379Z,31.77
2023-02-23T06:42:20.952Z,32.17
2023-02-23T06:44:48.860Z,33.55
2023-02-23T06:47:16.688Z,30.67
2023-02-23T06:49:44.607Z,30.42
2023-02-23T06:52:13.838Z,28.73
2023-02-23T06:54:42.540Z,28.35
2023-02-23T06:57:11.190Z,27.73
2023-02-23T06:59:39.411Z,26.15
2023-02-23T07:02:07.468Z,24.25
2023-02-23T07:04:35.440Z,25.35
2023-02-23T07:07:03.858Z,24.05
2023-02-23T07:09:32.095Z,25.05
2023-02-23T07:12:00.990Z,22.13
2023-02-23T07:14:29.538Z,24.20
2023-02-23T07:16:57.741Z,23.58
2023-02-23T07:19:26.109Z,25.02
2023-02-23T07:21:53.887Z,25.45
2023-02-23T07:24:43.249Z,25.15
2023-02-23T07:27:22.262Z,24.88
2023-02-23T07:29:51.464Z,24.92
2023-02-23T07:32:19.260Z,25.90
2023-02-23T07:34:47.957Z,26.65
2023-02-23T07:37:17.156Z,28.02
2023-02-23T07:39:45.269Z,26.27
2023-02-23T07:42:13.222Z,26.90
2023-02-23T07:44:41.170Z,26.90
2023-02-23T07:47:08.760Z,24.88
2023-02-23T07:49:36.631Z,26.17
2023-02-23T07:52:04.352Z,25.48
2023-02-23T07:54:32.290Z,25.73
2023-02-23T07:57:00.389Z,24.10
2023-02-23T07:59:28.175Z,22.52
2023-02-23T08:01:55.883Z,22.30
2023-02-23T08:04:24.258Z,21.80
2023-02-23T08:06:51.797Z,20.58
2023-02-23T08:09:19.951Z,19.70
2023-02-23T08:11:47.425Z,21.08
2023-02-23T08:14:15.432Z,21.40
2023-02-23T08:16:42.963Z,19.65
2023-02-23T08:19:11.142Z,21.50
2023-02-23T08:21:38.699Z,17.35
2023-02-23T08:24:07.138Z,15.38
2023-02-23T08:26:37.788Z,15.13
2023-02-23T08:29:06.013Z,14.02
2023-02-23T08:31:33.918Z,15.38
2023-02-23T08:34:02.389Z,14.43
2023-02-23T08:36:29.790Z,19.17
2023-02-23T08:38:58.175Z,15.93
2023-02-23T08:41:26.309Z,14.60
2023-02-23T08:43:54.547Z,15.55
2023-02-23T08:46:22.344Z,15.38
2023-02-23T08:48:50.183Z,15.85
2023-02-23T08:51:18.653Z,16.67
2023-02-23T08:53:46.766Z,18.27
2023-02-23T08:56:15.501Z,15.85
2023-02-23T08:58:43.722Z,15.70
2023-02-23T09:01:22.097Z,17.02
2023-02-23T09:03:50.417Z,17.20
2023-02-23T09:06:22.899Z,19.40
2023-02-23T09:08:51.214Z,21.98
2023-02-23T09:11:19.161Z,23.33
2023-02-23T09:13:47.734Z,24.70
2023-02-23T09:16:15.335Z,23.45
2023-02-23T09:18:44.055Z,23.63
2023-02-23T09:21:25.489Z,25.70
2023-02-23T09:23:56.131Z,24.80
2023-02-23T09:26:24.556Z,24.83
2023-02-23T09:28:52.439Z,24.55
2023-02-23T09:31:23.922Z,25.15
2023-02-23T09:33:53.314Z,23.95
2023-02-23T09:36:25.063Z,23.70
2023-02-23T09:38:57.194Z,23.80
2023-02-23T09:41:54.213Z,22.90
2023-02-23T09:44:41.272Z,23.73
2023-02-23T09:47:45.339Z,20.98
2023-02-23T09:50:26.913Z,20.17
2023-02-23T09:53:21.785Z,20.08
2023-02-23T09:55:51.998Z,20.25
2023-02-23T09:58:30.409Z,18.67
2023-02-23T10:01:27.164Z,21.02
2023-02-23T10:04:31.383Z,19.40
2023-02-23T10:07:18.696Z,17.90
2023-02-23T10:10:07.325Z,18.38
2023-02-23T10:12:58.847Z,19.00
2023-02-23T10:15:47.384Z,19.80
2023-02-23T10:18:46.202Z,18.50
2023-02-23T10:21:40.395Z,16.35
2023-02-23T10:24:35.431Z,16.48
2023-02-23T10:27:25.743Z,14.10
2023-02-23T10:29:56.544Z,14.05
2023-02-23T10:32:57.797Z,14.68
2023-02-23T10:35:29.993Z,12.95
2023-02-23T10:37:59.948Z,13.55
2023-02-23T10:40:33.012Z,12.65
2023-02-23T10:43:03.347Z,11.45
2023-02-23T10:45:52.056Z,10.57
2023-02-23T10:48:27.749Z,12.00
2023-02-23T10:51:03.179Z,9.57
2023-02-23T10:53:36.668Z,9.90
2023-02-23T10:56:25.176Z,9.88
2023-02-23T10:58:59.008Z,10.55
2023-02-23T11:02:00.985Z,11.63
2023-02-23T11:04:35.111Z,8.35
2023-02-23T11:07:18.630Z,11.40
2023-02-23T11:09:48.095Z,8.50
2023-02-23T11:12:41.995Z,7.60
2023-02-23T11:15:31.962Z,8.85
2023-02-23T11:18:07.792Z,7.95
2023-02-23T11:20:43.312Z,8.10
2023-02-23T11:23:36.754Z,8.57
2023-02-23T11:26:32.988Z,8.95
2023-02-23T11:29:31.219Z,7.72
2023-02-23T11:31:59.756Z,9.00
2023-02-23T11:34:41.286Z,9.98
2023-02-23T11:37:23.158Z,8.43
2023-02-23T11:39:59.379Z,8.60
2023-02-23T11:42:35.198Z,7.68
2023-02-23T11:45:17.254Z,7.32
2023-02-23T11:47:55.266Z,7.15
2023-02-23T11:50:36.396Z,7.27
2023-02-23T11:53:13.838Z,7.93
2023-02-23T11:55:54.845Z,7.85
2023-02-23T11:58:35.937Z,6.88
2023-02-23T12:01:14.378Z,7.40
2023-02-23T12:03:58.528Z,6.38
2023-02-23T12:06:30.603Z,6.97
2023-02-23T12:09:02.962Z,7.75
2023-02-23T12:11:37.663Z,6.75
2023-02-23T12:14:26.235Z,7.22
2023-02-23T12:17:05.293Z,8.00
2023-02-23T12:20:11.278Z,7.57
2023-02-23T12:22:48.749Z,9.27
2023-02-23T12:26:11.788Z,8.25
2023-02-23T12:28:45.944Z,7.18
2023-02-23T12:31:40.433Z,7.50
2023-02-23T12:34:38.577Z,7.55
2023-02-23T12:37:28.395Z,7.97
2023-02-23T12:40:28.082Z,8.18
2023-02-23T12:43:27.008Z,6.15
2023-02-23T12:46:21.925Z,8.13
2023-02-23T12:49:19.236Z,7.60
2023-02-23T12:52:02.183Z,7.65
2023-02-23T12:54:31.772Z,7.22
2023-02-23T12:57:28.016Z,8.77
2023-02-23T13:00:36.518Z,9.15
2023-02-23T13:03:31.318Z,8.27
2023-02-23T13:06:30.462Z,9.25
2023-02-23T13:09:31.749Z,9.00
2023-02-23T13:12:17.007Z,8.65
2023-02-23T13:15:19.656Z,7.38
2023-02-23T13:18:01.719Z,8.55
2023-02-23T13:20:55.946Z,8.05
2023-02-23T13:23:36.183Z,7.88
2023-02-23T13:26:28.764Z,8.20
2023-02-23T13:29:02.651Z,7.90
2023-02-23T13:31:37.478Z,9.35
2023-02-23T13:34:12.382Z,7.72
2023-02-23T13:36:42.174Z,6.22
2023-02-23T13:39:31.223Z,6.68
2023-02-23T13:42:28.188Z,5.75
2023-02-23T13:45:26.321Z,6.38
2023-02-23T13:48:14.235Z,7.18
2023-02-23T13:51:06.169Z,6.72
2023-02-23T13:54:06.226Z,6.47
2023-02-23T13:56:44.442Z,7.28
2023-02-23T13:59:52.772Z,8.20
2023-02-23T14:02:41.317Z,7.32
2023-02-23T14:05:27.544Z,7.63
2023-02-23T14:08:06.098Z,8.50
2023-02-23T14:13:28.997Z,7.47
2023-02-23T14:16:23.143Z,7.60
2023-02-23T14:19:12.800Z,8.30
2023-02-23T14:22:04.226Z,9.23
2023-02-23T14:24:31.893Z,8.40
2023-02-23T14:27:07.366Z,9.57
2023-02-23T14:30:05.700Z,8.05
2023-02-23T14:32:49.314Z,8.95
2023-02-23T14:35:40.202Z,9.82
2023-02-23T14:38:07.971Z,9.50
2023-02-23T14:40:41.979Z,8.82
2023-02-23T14:43:43.477Z,8.40
2023-02-23T14:46:21.492Z,7.90
2023-02-23T14:49:10.490Z,7.88
2023-02-23T14:51:48.149Z,7.72
2023-02-23T14:54:27.330Z,7.57
2023-02-23T14:59:49.015Z,7.05
2023-02-23T15:02:24.937Z,7.45
2023-02-23T15:04:53.379Z,8.27
2023-02-23T15:07:40.009Z,7.53
2023-02-23T15:10:43.561Z,7.80
2023-02-23T15:13:34.268Z,6.47
2023-02-23T15:16:13.029Z,7.53
2023-02-23T15:18:44.675Z,7.75
2023-02-23T15:21:19.509Z,8.75
2023-02-23T15:23:53.033Z,7.03
2023-02-23T15:26:35.445Z,7.40
2023-02-23T15:29:10.152Z,6.47
2023-02-23T15:31:50.257Z,7.00
2023-02-23T15:34:20.507Z,7.30
2023-02-23T15:37:06.226Z,7.63
2023-02-23T15:39:54.240Z,7.80
2023-02-23T15:42:29.047Z,7.30
2023-02-23T15:45:05.323Z,7.32
2023-02-23T15:47:37.714Z,6.63
2023-02-23T15:50:24.709Z,8.32
2023-02-23T15:53:08.954Z,7.72
2023-02-23T15:55:38.361Z,8.03
2023-02-23T15:58:17.933Z,8.73
2023-02-23T16:01:08.898Z,9.35
2023-02-23T16:03:44.423Z,13.90
2023-02-23T16:06:33.408Z,10.02
2023-02-23T16:09:05.822Z,9.45
2023-02-23T16:11:37.090Z,9.25
2023-02-23T16:14:06.888Z,7.63
2023-02-23T16:16:35.876Z,7.47
2023-02-23T16:21:33.132Z,8.02
2023-02-23T16:24:13.846Z,8.43
2023-02-23T16:26:44.465Z,7.90
2023-02-23T16:29:21.267Z,8.38
2023-02-23T16:31:59.923Z,8.82
2023-02-23T16:37:23.076Z,7.85
2023-02-23T16:39:51.834Z,8.52
2023-02-23T16:42:34.879Z,9.32
2023-02-23T16:45:03.053Z,9.82
2023-02-23T16:47:43.799Z,9.93
2023-02-23T16:50:24.423Z,10.20
2023-02-23T16:52:53.710Z,9.10
2023-02-23T16:55:28.559Z,10.40
2023-02-23T16:58:02.330Z,11.88
2023-02-23T17:00:33.676Z,10.52
2023-02-23T17:03:02.248Z,11.82
2023-02-23T17:05:30.529Z,10.82
2023-02-23T17:07:59.231Z,10.07
2023-02-23T17:10:32.527Z,9.23
2023-02-23T17:13:12.961Z,10.07
2023-02-23T17:15:51.750Z,10.30
2023-02-23T17:20:52.739Z,10.45
2023-02-23T17:23:23.346Z,9.93
2023-02-23T17:25:51.309Z,8.57
2023-02-23T17:28:19.324Z,10.38
2023-02-23T17:30:47.683Z,11.18
2023-02-23T17:33:15.465Z,9.50
2023-02-23T17:35:44.071Z,10.00
2023-02-23T17:38:11.601Z,10.65
2023-02-23T17:40:39.544Z,10.23
2023-02-23T17:43:08.086Z,8.82
2023-02-23T17:45:36.192Z,8.70
2023-02-23T17:48:03.790Z,8.68
2023-02-23T17:50:31.617Z,8.35
2023-02-23T17:52:59.239Z,8.93
2023-02-23T17:55:27.068Z,8.80
2023-02-23T17:57:54.599Z,8.95
2023-02-23T18:00:22.374Z,9.45
2023-02-23T18:02:51.092Z,10.52
2023-02-23T18:05:18.888Z,9.32
2023-02-23T18:07:48.447Z,9.48
2023-02-23T18:10:17.328Z,10.00
2023-02-23T18:12:45.529Z,10.30
2023-02-23T18:15:13.260Z,11.13
2023-02-23T18:17:41.288Z,10.30
2023-02-23T18:20:10.998Z,10.27
2023-02-23T18:22:39.397Z,9.27
2023-02-23T18:25:07.952Z,9.35
2023-02-23T18:27:35.812Z,10.32
2023-02-23T18:30:04.135Z,10.60
2023-02-23T18:32:32.525Z,11.85
2023-02-23T18:35:01.163Z,17.17
2023-02-23T18:37:29.740Z,24.83
2023-02-23T18:39:59.359Z,23.67
2023-02-23T18:42:27.302Z,23.23
2023-02-23T18:44:54.797Z,16.05
2023-02-23T18:47:22.801Z,13.73
2023-02-23T18:49:50.582Z,13.90
2023-02-23T18:52:18.381Z,14.13
2023-02-23T18:54:46.241Z,15.13
2023-02-23T18:57:14.171Z,12.55
2023-02-23T18:59:41.817Z,11.52
2023-02-23T19:02:10.935Z,12.73
2023-02-23T19:04:39.392Z,12.60
2023-02-23T19:07:07.264Z,14.05
2023-02-23T19:09:39.738Z,13.48
2023-02-23T19:12:07.849Z,12.13
2023-02-23T19:14:48.908Z,12.07
2023-02-23T19:17:17.724Z,10.88
2023-02-23T19:19:45.471Z,11.35
2023-02-23T19:22:13.440Z,11.95
2023-02-23T19:24:41.221Z,10.65
2023-02-23T19:27:10.146Z,11.00
2023-02-23T19:29:37.825Z,9.87
2023-02-23T19:32:06.994Z,10.82
2023-02-23T19:34:36.255Z,11.15
2023-02-23T19:37:04.082Z,12.00
2023-02-23T19:39:31.897Z,11.60
2023-02-23T19:41:59.718Z,9.10
2023-02-23T19:44:27.311Z,9.88
2023-02-23T19:46:55.439Z,10.88
2023-02-23T19:49:23.671Z,11.05
2023-02-23T19:51:53.146Z,9.93
2023-02-23T19:56:50.565Z,9.35
2023-02-23T19:59:19.093Z,9.48
2023-02-23T20:01:47.245Z,10.00
2023-02-23T20:04:14.968Z,9.40
2023-02-23T20:06:47.193Z,9.05
2023-02-23T20:09:15.626Z,8.57
2023-02-23T20:11:43.576Z,9.50
2023-02-23T20:14:12.539Z,9.43
2023-02-23T20:16:40.853Z,10.18
2023-02-23T20:19:08.551Z,10.13
2023-02-23T20:22:16.143Z,9.50
2023-02-23T20:24:44.107Z,9.93
2023-02-23T20:27:12.044Z,11.00
2023-02-23T20:29:39.724Z,9.55
2023-02-23T20:32:08.646Z,9.43
2023-02-23T20:34:39.625Z,9.77
2023-02-23T20:37:08.444Z,10.18
2023-02-23T20:39:37.351Z,12.07
2023-02-23T20:42:05.947Z,10.85
2023-02-23T20:44:33.804Z,11.55
2023-02-23T20:48:01.569Z,11.43
2023-02-23T20:51:12.906Z,14.20
2023-02-23T20:53:42.434Z,12.48
2023-02-23T20:56:11.044Z,14.82
2023-02-23T20:58:39.837Z,14.32
2023-02-23T21:01:20.587Z,14.02
2023-02-23T21:03:54.056Z,12.65
2023-02-23T21:06:26.038Z,14.35
2023-02-23T21:09:02.940Z,13.52
2023-02-23T21:11:34.218Z,13.25
2023-02-23T21:14:41.310Z,13.02
2023-02-23T21:18:01.004Z,12.75
2023-02-23T21:20:30.328Z,11.48
2023-02-23T21:22:58.650Z,12.90
2023-02-23T21:25:28.607Z,10.02
2023-02-23T21:27:57.255Z,10.43
2023-02-23T21:30:28.720Z,10.68
2023-02-23T21:32:57.917Z,10.43
2023-02-23T21:35:25.615Z,10.15
2023-02-23T21:37:53.753Z,10.48
2023-02-23T21:40:22.309Z,10.63
2023-02-23T21:42:51.318Z,11.68
2023-02-23T21:45:19.536Z,10.18
2023-02-23T21:47:49.137Z,10.70
2023-02-23T21:50:19.857Z,10.55
2023-02-23T21:52:50.513Z,10.15
2023-02-23T21:55:22.153Z,10.98
2023-02-23T21:57:52.117Z,10.88
2023-02-23T22:02:50.573Z,9.82
2023-02-23T22:05:20.499Z,10.52
2023-02-23T22:07:52.192Z,9.75
2023-02-23T22:10:23.350Z,11.77
2023-02-23T22:12:56.022Z,9.65
2023-02-23T22:15:29.824Z,10.95
2023-02-23T22:17:58.567Z,10.57
2023-02-23T22:20:26.380Z,9.50
2023-02-23T22:22:54.842Z,11.10
2023-02-23T22:25:22.626Z,9.40
2023-02-23T22:27:51.738Z,10.10
2023-02-23T22:30:23.928Z,10.25
2023-02-23T22:32:52.168Z,11.00
2023-02-23T22:35:19.942Z,10.32
2023-02-23T22:37:48.365Z,9.88
2023-02-23T22:40:16.890Z,10.63
2023-02-23T22:42:49.803Z,11.05
2023-02-23T22:45:19.010Z,10.43
2023-02-23T22:47:48.376Z,10.75
2023-02-23T22:50:19.507Z,10.65
2023-02-23T22:52:47.684Z,11.50
2023-02-23T22:55:15.344Z,11.68
2023-02-23T22:57:44.070Z,12.05
2023-02-23T23:00:14.678Z,12.50
2023-02-23T23:02:43.189Z,13.18
2023-02-23T23:05:13.410Z,12.52
2023-02-23T23:07:42.035Z,12.30
2023-02-23T23:10:12.178Z,12.43
2023-02-23T23:12:40.517Z,13.18
2023-02-23T23:15:17.274Z,12.68
2023-02-23T23:17:48.637Z,12.10
2023-02-23T23:20:25.686Z,12.35
2023-02-23T23:22:57.513Z,12.93
2023-02-23T23:25:25.687Z,13.20
2023-02-23T23:27:56.255Z,12.45
2023-02-23T23:30:29.413Z,11.73
2023-02-23T23:32:58.457Z,13.07
2023-02-23T23:35:26.246Z,12.50
2023-02-23T23:37:54.075Z,11.93
2023-02-23T23:40:24.600Z,12.75
2023-02-23T23:42:53.351Z,12.50
2023-02-23T23:45:24.446Z,13.20
2023-02-23T23:47:52.421Z,12.43
2023-02-23T23:50:24.458Z,13.35
2023-02-23T23:52:54.390Z,12.95
2023-02-23T23:55:22.428Z,13.38
2023-02-23T23:57:50.236Z,12.55
